Time;durP1;ratioP1;P1;durP2;ratioP2;P2;SDS_P1;SDS_P2;PMS_P1;PMS_P2;Temp;Humidity;BMP_temperature;BMP_pressure;BME280_temperature;BME280_humidity;BME280_pressure;Samples;Min_cycle;Max_cycle;Signal;HPM_P1;HPM_P2
2021/04/13 00:02:25;;;;;;;8.90;7.80;;;1.00;99.90;;;;;;5087642;28;20435;-76
2021/04/13 00:05:10;;;;;;;13.00;8.17;;;1.00;99.90;;;;;;5093834;28;20185;-76
2021/04/13 00:07:39;;;;;;;8.60;7.70;;;1.00;99.90;;;;;;5098554;28;20438;-78
2021/04/13 00:10:14;;;;;;;9.80;8.33;;;0.90;99.90;;;;;;5092037;28;20439;-76
2021/04/13 00:12:41;;;;;;;10.00;8.93;;;0.90;99.90;;;;;;5096865;28;20480;-76
2021/04/13 00:15:16;;;;;;;8.63;7.73;;;0.90;99.90;;;;;;5097283;28;20454;-78
2021/04/13 00:17:45;;;;;;;8.33;7.53;;;0.90;99.90;;;;;;5096181;28;20538;-77
2021/04/13 00:20:17;;;;;;;9.03;8.17;;;0.80;99.90;;;;;;5097959;28;21002;-78
2021/04/13 00:22:43;;;;;;;9.43;8.53;;;0.80;99.90;;;;;;5094494;28;20510;-76
2021/04/13 00:25:15;;;;;;;8.17;7.47;;;0.80;99.90;;;;;;5095941;28;20434;-77
2021/04/13 00:27:41;;;;;;;10.80;8.80;;;0.80;99.90;;;;;;5094755;28;20449;-78
2021/04/13 00:30:15;;;;;;;10.40;8.50;;;0.80;99.90;;;;;;5095898;28;20949;-78
2021/04/13 00:32:48;;;;;;;9.50;8.60;;;0.80;99.90;;;;;;5089629;28;21648;-77
2021/04/13 00:35:27;;;;;;;10.30;9.17;;;0.80;99.90;;;;;;5099251;28;20470;-76
2021/04/13 00:38:16;;;;;;;10.93;9.20;;;0.80;99.90;;;;;;5090509;28;20480;-78
2021/04/13 00:40:44;;;;;;;9.57;8.60;;;0.80;99.90;;;;;;5092760;28;20477;-77
2021/04/13 00:43:12;;;;;;;12.23;8.90;;;0.80;99.90;;;;;;5092951;28;20966;-77
2021/04/13 00:45:41;;;;;;;11.60;9.93;;;0.80;99.90;;;;;;5094943;28;20438;-77
2021/04/13 00:48:08;;;;;;;11.43;10.23;;;0.80;99.90;;;;;;5086484;22;20500;-75
2021/04/13 00:50:40;;;;;;;11.20;10.10;;;0.70;99.90;;;;;;5057743;28;20800;-75
2021/04/13 00:53:11;;;;;;;11.07;9.97;;;0.70;99.90;;;;;;5050860;28;20432;-75
2021/04/13 00:55:49;;;;;;;13.37;11.97;;;0.70;99.90;;;;;;5047910;28;20546;-75
2021/04/13 00:58:21;;;;;;;15.00;13.43;;;0.80;99.90;;;;;;5056781;28;20440;-75
2021/04/13 01:00:52;;;;;;;12.03;10.83;;;0.70;99.90;;;;;;5051187;28;20441;-74
2021/04/13 01:03:18;;;;;;;12.10;11.00;;;0.70;99.90;;;;;;5043803;28;20437;-75
2021/04/13 01:05:52;;;;;;;14.33;12.80;;;0.70;99.90;;;;;;5052474;28;20435;-76
2021/04/13 01:08:36;;;;;;;14.47;11.83;;;0.80;99.90;;;;;;5057731;28;20468;-76
2021/04/13 01:11:24;;;;;;;14.20;11.93;;;0.80;99.90;;;;;;5049494;28;20515;-76
2021/04/13 01:14:01;;;;;;;12.47;11.17;;;0.70;99.90;;;;;;5048194;28;20789;-75
2021/04/13 01:16:39;;;;;;;14.43;12.20;;;0.70;99.90;;;;;;5060496;28;20431;-75
2021/04/13 01:19:43;;;;;;;12.20;10.90;;;0.60;99.90;;;;;;5054169;28;20415;-76
2021/04/13 01:22:15;;;;;;;14.10;12.30;;;0.60;99.90;;;;;;5050273;28;20423;-75
2021/04/13 01:24:50;;;;;;;11.27;10.13;;;0.60;99.90;;;;;;5044464;28;20554;-75
2021/04/13 01:27:17;;;;;;;12.80;11.50;;;0.70;99.90;;;;;;5050606;28;21079;-76
2021/04/13 01:29:45;;;;;;;14.07;11.87;;;0.70;99.90;;;;;;5056578;28;20507;-74
2021/04/13 01:32:12;;;;;;;12.07;10.50;;;0.60;99.90;;;;;;5050287;28;20488;-75
2021/04/13 01:34:43;;;;;;;11.90;10.70;;;0.70;99.90;;;;;;5047320;28;20857;-75
2021/04/13 01:37:47;;;;;;;12.70;10.93;;;0.60;99.90;;;;;;5059301;28;20461;-75
2021/04/13 01:42:43;;;;;;;14.00;12.47;;;0.50;99.90;;;;;;5053680;28;20423;-73
2021/04/13 01:45:14;;;;;;;12.53;10.80;;;0.40;99.90;;;;;;5052638;28;20916;-75
2021/04/13 01:47:41;;;;;;;13.27;11.87;;;0.50;99.90;;;;;;5054544;28;20467;-75
2021/04/13 01:50:13;;;;;;;12.50;11.20;;;0.40;99.90;;;;;;5058085;28;20465;-75
2021/04/13 01:52:46;;;;;;;12.43;11.07;;;0.40;99.90;;;;;;5042196;28;20447;-75
2021/04/13 01:55:20;;;;;;;13.10;10.93;;;0.40;99.90;;;;;;5053540;28;20471;-75
2021/04/13 01:58:28;;;;;;;13.10;11.70;;;0.40;99.90;;;;;;5062450;28;20661;-75
2021/04/13 02:01:10;;;;;;;13.27;11.90;;;0.40;99.90;;;;;;5042240;28;20507;-74
2021/04/13 02:03:52;;;;;;;12.00;10.50;;;0.30;99.90;;;;;;5049534;28;20489;-75
2021/04/13 02:06:37;;;;;;;13.20;11.33;;;0.30;99.90;;;;;;5053021;28;20435;-75
2021/04/13 02:09:36;;;;;;;13.30;11.00;;;0.30;99.90;;;;;;5039000;28;20524;-75
2021/04/13 02:12:08;;;;;;;12.50;11.03;;;0.20;99.90;;;;;;5055877;28;20428;-75
2021/04/13 02:14:37;;;;;;;18.17;11.80;;;0.20;99.90;;;;;;5048401;28;20876;-75
2021/04/13 02:17:09;;;;;;;12.77;11.43;;;0.30;99.90;;;;;;5055827;28;20515;-75
2021/04/13 02:19:36;;;;;;;12.57;11.27;;;0.20;99.90;;;;;;5046199;28;20520;-75
2021/04/13 02:22:07;;;;;;;15.47;13.00;;;0.30;99.90;;;;;;5060844;28;20420;-75
2021/04/13 02:24:33;;;;;;;14.60;12.30;;;0.20;99.90;;;;;;5052075;28;20447;-75
2021/04/13 02:27:03;;;;;;;13.30;11.60;;;0.20;99.90;;;;;;5054807;28;20762;-75
2021/04/13 02:29:45;;;;;;;13.03;10.87;;;0.10;99.90;;;;;;5051915;28;20429;-75
2021/04/13 02:32:18;;;;;;;12.63;10.77;;;0.10;99.90;;;;;;5049483;28;20518;-75
2021/04/13 02:34:48;;;;;;;14.10;12.60;;;0.10;99.90;;;;;;5052637;28;20466;-75
2021/04/13 02:37:16;;;;;;;12.87;11.50;;;0.10;99.90;;;;;;5059040;28;20448;-75
2021/04/13 02:39:43;;;;;;;15.00;12.50;;;0.00;99.90;;;;;;5053339;28;20781;-75
2021/04/13 02:42:18;;;;;;;14.97;12.80;;;0.10;99.90;;;;;;5057824;28;21041;-75
2021/04/13 02:44:55;;;;;;;13.87;12.37;;;0.00;99.90;;;;;;5055002;28;20440;-75
2021/04/13 02:47:22;;;;;;;17.13;12.80;;;0.00;99.90;;;;;;5051783;28;20464;-74
2021/04/13 02:49:47;;;;;;;15.97;13.80;;;0.00;99.90;;;;;;5059142;28;20430;-75
2021/04/13 02:52:19;;;;;;;16.27;13.23;;;0.00;99.90;;;;;;5060103;28;20493;-75
2021/04/13 02:54:58;;;;;;;15.93;13.23;;;0.10;99.90;;;;;;5055536;28;20237;-74
2021/04/13 02:57:28;;;;;;;14.97;13.33;;;0.00;99.90;;;;;;5044924;28;20544;-75
2021/04/13 03:00:05;;;;;;;16.30;13.60;;;0.00;99.90;;;;;;5049178;28;20820;-75
2021/04/13 03:02:39;;;;;;;16.20;12.70;;;0.00;99.90;;;;;;5046537;28;20425;-75
2021/04/13 03:05:06;;;;;;;14.93;12.63;;;0.00;99.90;;;;;;5055463;28;20517;-74
2021/04/13 03:07:36;;;;;;;14.60;12.90;;;-0.10;99.90;;;;;;5047587;28;20529;-75
2021/04/13 03:10:08;;;;;;;16.13;12.70;;;-0.10;99.90;;;;;;5050581;28;20480;-75
2021/04/13 03:12:38;;;;;;;13.33;11.80;;;-0.10;99.90;;;;;;5056329;28;20436;-75
2021/04/13 03:15:06;;;;;;;15.80;13.67;;;-0.10;99.90;;;;;;5056136;28;20467;-75
2021/04/13 03:17:32;;;;;;;16.10;13.70;;;-0.10;99.90;;;;;;5059302;28;20455;-75
2021/04/13 03:20:07;;;;;;;15.17;13.57;;;-0.10;99.90;;;;;;5049975;28;20433;-76
2021/04/13 03:22:35;;;;;;;16.27;14.13;;;-0.10;99.90;;;;;;5053703;28;20793;-75
2021/04/13 03:25:01;;;;;;;15.10;13.30;;;-0.20;99.90;;;;;;5048043;28;20432;-75
2021/04/13 03:27:30;;;;;;;15.30;13.37;;;-0.20;99.90;;;;;;5056135;28;20547;-75
2021/04/13 03:30:14;;;;;;;14.67;13.13;;;-0.20;99.90;;;;;;5053314;28;20799;-76
2021/04/13 03:32:52;;;;;;;14.97;12.40;;;-0.20;99.90;;;;;;5058981;28;20433;-76
2021/04/13 03:35:20;;;;;;;19.50;14.73;;;-0.20;99.90;;;;;;5055537;28;20464;-74
2021/04/13 03:37:46;;;;;;;14.90;13.30;;;-0.20;99.90;;;;;;5057652;28;20460;-75
2021/04/13 03:40:17;;;;;;;17.50;13.10;;;-0.20;99.90;;;;;;5053145;28;20425;-74
2021/04/13 03:42:43;;;;;;;18.10;14.83;;;-0.30;99.90;;;;;;5049876;28;20194;-74
2021/04/13 03:45:12;;;;;;;14.70;12.77;;;-0.30;99.90;;;;;;5059651;28;20804;-75
2021/04/13 03:47:39;;;;;;;18.47;13.97;;;-0.30;99.90;;;;;;5048603;28;20325;-75
2021/04/13 03:50:09;;;;;;;17.03;15.30;;;-0.20;99.90;;;;;;5052141;28;20765;-75
2021/04/13 03:52:35;;;;;;;17.70;14.00;;;-0.20;99.90;;;;;;5058183;28;20501;-76
2021/04/13 03:55:16;;;;;;;17.40;14.40;;;-0.30;99.90;;;;;;5043796;28;20486;-75
2021/04/13 03:57:42;;;;;;;19.20;14.63;;;-0.30;99.90;;;;;;5054752;28;20879;-75
2021/04/13 04:00:12;;;;;;;16.83;14.20;;;-0.30;99.90;;;;;;5051773;28;20417;-75
2021/04/13 04:02:37;;;;;;;16.67;13.40;;;-0.30;99.90;;;;;;5045771;28;20429;-75
2021/04/13 04:05:07;;;;;;;18.13;15.07;;;-0.40;99.90;;;;;;5045203;28;20981;-75
2021/04/13 04:07:38;;;;;;;16.53;13.53;;;-0.40;99.90;;;;;;5063160;28;20202;-75
2021/04/13 04:10:41;;;;;;;16.60;13.93;;;-0.30;99.90;;;;;;5052945;28;20527;-75
2021/04/13 04:13:11;;;;;;;18.80;14.30;;;-0.20;99.90;;;;;;5045682;28;20945;-76
2021/04/13 04:15:46;;;;;;;17.53;14.90;;;-0.30;99.90;;;;;;5051285;28;20832;-75
2021/04/13 04:18:28;;;;;;;18.00;14.83;;;-0.30;99.90;;;;;;5054651;28;20490;-75
2021/04/13 04:20:55;;;;;;;16.97;14.77;;;-0.30;99.90;;;;;;5050401;28;20796;-76
2021/04/13 04:23:31;;;;;;;16.50;13.87;;;-0.40;99.90;;;;;;5061719;28;20419;-75
2021/04/13 04:26:05;;;;;;;19.73;16.47;;;-0.40;99.90;;;;;;5053593;28;20465;-75
2021/04/13 04:28:34;;;;;;;17.80;14.97;;;-0.50;99.90;;;;;;5062351;28;20519;-75
2021/04/13 04:31:35;;;;;;;16.00;13.73;;;-0.40;99.90;;;;;;5045978;28;20824;-74
2021/04/13 04:34:20;;;;;;;20.17;15.23;;;-0.50;99.90;;;;;;5046346;28;20426;-74
2021/04/13 04:36:48;;;;;;;19.80;15.67;;;-0.60;99.90;;;;;;5054258;28;20844;-74
2021/04/13 04:39:34;;;;;;;18.77;14.90;;;-0.60;99.90;;;;;;5045623;28;20443;-74
2021/04/13 04:42:29;;;;;;;21.03;14.57;;;-0.50;99.90;;;;;;5040557;28;20436;-74
2021/04/13 04:45:32;;;;;;;17.57;15.53;;;-0.50;99.90;;;;;;5049860;28;20527;-74
2021/04/13 04:47:58;;;;;;;19.97;15.40;;;-0.50;99.90;;;;;;5048877;28;20463;-74
2021/04/13 04:50:23;;;;;;;21.03;15.57;;;-0.50;99.90;;;;;;5054779;28;20460;-74
2021/04/13 04:52:49;;;;;;;24.20;16.37;;;-0.50;99.90;;;;;;5045449;28;20450;-73
2021/04/13 04:55:15;;;;;;;26.20;17.27;;;-0.50;99.90;;;;;;5040440;28;20217;-75
2021/04/13 04:57:41;;;;;;;21.07;17.03;;;-0.50;99.90;;;;;;5056804;28;20288;-74
2021/04/13 05:00:08;;;;;;;23.07;17.13;;;-0.50;99.90;;;;;;5045457;28;20604;-75
2021/04/13 05:02:34;;;;;;;24.17;18.10;;;-0.50;99.90;;;;;;5050284;28;20829;-74
2021/04/13 05:05:01;;;;;;;21.17;16.67;;;-0.60;99.90;;;;;;5052102;28;20424;-74
2021/04/13 05:07:26;;;;;;;22.03;16.03;;;-0.60;99.90;;;;;;5059682;28;20459;-73
2021/04/13 05:09:52;;;;;;;21.07;16.93;;;-0.50;99.90;;;;;;5049359;28;20832;-75
2021/04/13 05:12:18;;;;;;;19.50;16.00;;;-0.50;99.90;;;;;;5054259;28;20301;-74
2021/04/13 05:14:43;;;;;;;21.00;14.77;;;-0.50;99.90;;;;;;5055029;28;20237;-72
2021/04/13 05:17:09;;;;;;;20.20;15.57;;;-0.50;99.90;;;;;;5060759;28;20673;-74
2021/04/13 05:19:34;;;;;;;24.40;16.77;;;-0.40;99.90;;;;;;5054330;28;20206;-74
2021/04/13 05:22:00;;;;;;;23.33;16.20;;;-0.40;99.90;;;;;;5054489;28;20174;-74
2021/04/13 05:24:26;;;;;;;21.53;16.90;;;-0.30;99.90;;;;;;5046760;28;20612;-73
2021/04/13 05:26:51;;;;;;;23.10;17.30;;;-0.20;99.90;;;;;;5051098;28;20232;-72
2021/04/13 05:29:17;;;;;;;20.43;15.47;;;-0.20;99.90;;;;;;5054552;28;20182;-73
2021/04/13 05:31:43;;;;;;;21.53;15.80;;;-0.20;99.90;;;;;;5056490;28;20186;-74
2021/04/13 05:34:09;;;;;;;23.43;16.77;;;-0.10;99.90;;;;;;5049271;28;20662;-73
2021/04/13 05:36:37;;;;;;;20.90;16.97;;;0.00;99.90;;;;;;5059567;28;20659;-73
2021/04/13 05:39:03;;;;;;;21.53;17.53;;;0.00;99.90;;;;;;5058574;28;20489;-73
2021/04/13 05:41:29;;;;;;;19.40;15.83;;;0.10;99.90;;;;;;5053767;28;20484;-73
2021/04/13 05:43:55;;;;;;;20.10;16.03;;;0.10;99.90;;;;;;5059372;28;20424;-73
2021/04/13 05:46:25;;;;;;;20.97;17.30;;;0.20;99.90;;;;;;5059626;28;20191;-73
2021/04/13 05:48:52;;;;;;;22.20;17.00;;;0.30;99.90;;;;;;5042635;28;20499;-73
2021/04/13 05:51:18;;;;;;;21.33;18.73;;;0.40;99.90;;;;;;5054924;28;20432;-73
2021/04/13 05:53:44;;;;;;;25.53;17.47;;;0.50;99.90;;;;;;5060101;28;20519;-72
2021/04/13 05:56:14;;;;;;;23.37;18.27;;;0.60;99.90;;;;;;5049941;28;20910;-73
2021/04/13 05:58:45;;;;;;;22.10;17.33;;;0.60;99.90;;;;;;5055666;28;20584;-74
2021/04/13 06:01:12;;;;;;;23.17;17.33;;;0.80;99.90;;;;;;5048827;28;20857;-73
2021/04/13 06:03:37;;;;;;;23.30;17.97;;;0.90;99.90;;;;;;5046759;28;20533;-73
2021/04/13 06:06:03;;;;;;;22.03;18.80;;;1.00;99.90;;;;;;5059608;28;20543;-74
2021/04/13 06:08:29;;;;;;;21.60;17.17;;;1.20;99.90;;;;;;5059472;28;20249;-73
2021/04/13 06:10:56;;;;;;;23.17;17.77;;;1.40;99.90;;;;;;5053927;28;20257;-73
2021/04/13 06:13:24;;;;;;;21.33;17.97;;;1.50;99.90;;;;;;5062821;28;20210;-73
2021/04/13 06:15:53;;;;;;;23.87;17.50;;;1.70;99.90;;;;;;5061960;28;20459;-73
2021/04/13 06:18:19;;;;;;;22.93;17.00;;;1.70;99.90;;;;;;5050855;28;20460;-73
2021/04/13 06:20:44;;;;;;;24.37;17.07;;;1.80;99.90;;;;;;5065648;28;20429;-77
2021/04/13 06:23:10;;;;;;;24.43;19.27;;;1.90;99.90;;;;;;5058983;28;20198;-78
2021/04/13 06:25:36;;;;;;;20.00;16.53;;;2.00;99.90;;;;;;5060342;28;20193;-79
2021/04/13 06:28:02;;;;;;;20.03;17.80;;;2.10;99.90;;;;;;5055461;28;20210;-77
2021/04/13 06:30:28;;;;;;;22.93;18.40;;;2.20;99.90;;;;;;5058981;28;20189;-78
2021/04/13 06:32:54;;;;;;;22.50;17.33;;;2.40;99.90;;;;;;5042141;28;20429;-78
2021/04/13 06:35:21;;;;;;;20.50;17.27;;;2.50;99.90;;;;;;5061898;28;20986;-73
2021/04/13 06:37:48;;;;;;;20.97;16.70;;;2.50;99.90;;;;;;5048945;28;20236;-74
2021/04/13 06:40:29;;;;;;;18.30;15.20;;;2.60;99.90;;;;;;5061301;28;20904;-73
2021/04/13 06:43:05;;;;;;;22.37;18.67;;;2.80;99.90;;;;;;5044555;28;20429;-73
2021/04/13 06:45:51;;;;;;;22.80;17.30;;;2.80;99.90;;;;;;5063924;28;20611;-74
2021/04/13 06:48:23;;;;;;;21.50;16.07;;;3.00;99.90;;;;;;5067764;23;20539;-77
2021/04/13 06:51:06;;;;;;;20.53;16.30;;;3.10;99.90;;;;;;5051210;28;20429;-77
2021/04/13 06:53:47;;;;;;;20.90;16.93;;;3.20;99.90;;;;;;5050017;28;20421;-77
2021/04/13 06:56:36;;;;;;;17.13;14.27;;;3.40;99.90;;;;;;5053085;28;20480;-77
2021/04/13 06:59:20;;;;;;;19.40;16.60;;;3.40;99.90;;;;;;5044633;28;20445;-76
2021/04/13 07:02:00;;;;;;;18.23;15.20;;;3.40;99.90;;;;;;5053021;28;20720;-78
2021/04/13 07:04:59;;;;;;;21.57;16.13;;;3.40;99.90;;;;;;5053797;28;20409;-76
2021/04/13 07:07:59;;;;;;;19.90;16.47;;;3.60;99.90;;;;;;5052225;28;20545;-77
2021/04/13 07:10:30;;;;;;;19.10;15.70;;;3.50;99.90;;;;;;5036273;28;20456;-75
2021/04/13 07:13:20;;;;;;;22.47;17.07;;;3.60;99.90;;;;;;5050066;28;20425;-77
2021/04/13 07:16:43;;;;;;;19.17;15.90;;;3.70;99.90;;;;;;5046816;28;20476;-77
2021/04/13 07:19:20;;;;;;;17.60;14.73;;;3.70;99.90;;;;;;4971071;28;20531;-76
2021/04/13 07:21:58;;;;;;;19.07;15.20;;;3.80;99.90;;;;;;5004909;28;20748;-76
2021/04/13 07:24:39;;;;;;;17.97;15.20;;;3.90;99.90;;;;;;5006417;28;20878;-76
2021/04/13 07:27:15;;;;;;;17.60;15.37;;;4.10;99.90;;;;;;4996386;28;20545;-76
2021/04/13 07:29:47;;;;;;;19.97;16.20;;;4.10;99.90;;;;;;5004231;28;20960;-77
2021/04/13 07:32:21;;;;;;;19.87;15.10;;;4.20;99.90;;;;;;5001926;28;20529;-77
2021/04/13 07:34:52;;;;;;;20.17;15.40;;;4.30;99.90;;;;;;5005860;28;20470;-75
2021/04/13 07:37:34;;;;;;;23.33;16.13;;;4.30;99.90;;;;;;5004992;28;20452;-76
2021/04/13 07:40:04;;;;;;;20.67;16.40;;;4.30;99.90;;;;;;5005559;28;21635;-76
2021/04/13 07:42:35;;;;;;;25.97;16.40;;;4.40;99.90;;;;;;4984094;28;20433;-75
2021/04/13 07:45:35;;;;;;;15.90;14.00;;;4.40;99.90;;;;;;4995873;28;20435;-77
2021/04/13 07:48:23;;;;;;;17.63;14.70;;;4.40;99.90;;;;;;4983386;28;20480;-77
2021/04/13 07:51:26;;;;;;;14.80;13.00;;;4.40;99.90;;;;;;5000959;28;20493;-78
2021/04/13 07:53:57;;;;;;;17.70;14.30;;;4.50;99.90;;;;;;4996380;28;21056;-77
2021/04/13 07:56:37;;;;;;;15.43;13.83;;;4.60;99.90;;;;;;5033599;28;20838;-77
2021/04/13 07:59:06;;;;;;;19.47;13.77;;;4.50;99.90;;;;;;5040854;28;20452;-76
2021/04/13 08:01:32;;;;;;;17.60;13.00;;;4.50;99.90;;;;;;5037884;28;20887;-76
2021/04/13 08:03:58;;;;;;;16.37;13.57;;;4.70;99.90;;;;;;5050282;28;20519;-78
2021/04/13 08:06:29;;;;;;;17.77;13.10;;;4.80;99.90;;;;;;5038372;28;20438;-78
2021/04/13 08:09:13;;;;;;;15.60;13.77;;;4.90;99.90;;;;;;5047921;28;20209;-79
2021/04/13 08:12:05;;;;;;;12.83;11.43;;;4.90;99.90;;;;;;5051693;28;20474;-77
2021/04/13 08:14:43;;;;;;;16.17;12.70;;;5.10;99.90;;;;;;5054354;28;20777;-78
2021/04/13 08:17:19;;;;;;;15.73;12.70;;;5.10;99.90;;;;;;5042291;28;20494;-77
2021/04/13 08:20:05;;;;;;;13.37;11.97;;;5.10;99.90;;;;;;5045081;28;20864;-76
2021/04/13 08:23:06;;;;;;;15.43;10.07;;;5.20;99.90;;;;;;5044770;28;20432;-76
2021/04/13 08:25:47;;;;;;;13.77;10.50;;;5.30;99.90;;;;;;5001015;28;20477;-77
2021/04/13 08:28:19;;;;;;;14.30;10.90;;;5.40;99.90;;;;;;5024069;28;20467;-75
2021/04/13 08:34:27;;;;;;;12.07;9.80;;;5.30;99.90;;;;;;5024450;28;20417;-77
2021/04/13 08:37:31;;;;;;;14.87;11.77;;;5.30;99.90;;;;;;5016951;28;20438;-76
2021/04/13 08:40:13;;;;;;;13.47;10.07;;;5.20;99.90;;;;;;5024569;28;20414;-76
2021/04/13 08:42:59;;;;;;;12.30;9.57;;;5.30;99.90;;;;;;5025301;28;20425;-75
2021/04/13 08:45:37;;;;;;;14.63;9.80;;;5.30;99.90;;;;;;5025312;28;20414;-76
2021/04/13 08:48:21;;;;;;;12.87;9.70;;;5.40;99.90;;;;;;5024614;28;20469;-77
2021/04/13 08:50:52;;;;;;;15.23;11.47;;;5.40;99.90;;;;;;5007078;28;20958;-77
2021/04/13 08:53:39;;;;;;;11.40;10.20;;;5.30;99.90;;;;;;5009751;28;20981;-76
2021/04/13 08:56:16;;;;;;;10.43;8.90;;;5.40;99.90;;;;;;5030329;28;21029;-76
2021/04/13 08:58:46;;;;;;;14.80;9.77;;;5.60;99.90;;;;;;5030613;28;20483;-78
2021/04/13 09:01:30;;;;;;;11.00;9.10;;;5.80;99.90;;;;;;5055942;28;20432;-78
2021/04/13 09:03:56;;;;;;;10.43;9.07;;;5.80;99.90;;;;;;5040592;28;20532;-76
2021/04/13 09:06:31;;;;;;;10.93;9.83;;;5.80;99.90;;;;;;5051072;28;20429;-76
2021/04/13 09:09:07;;;;;;;9.67;8.77;;;5.90;99.90;;;;;;5042863;28;20443;-76
2021/04/13 09:11:59;;;;;;;11.30;9.53;;;6.00;99.90;;;;;;5049929;28;20462;-77
2021/04/13 09:15:01;;;;;;;11.00;9.73;;;6.20;99.90;;;;;;5070594;28;20465;-76
2021/04/13 09:17:43;;;;;;;9.63;8.60;;;6.70;99.90;;;;;;5066192;28;20451;-77
2021/04/13 09:20:47;;;;;;;11.23;8.30;;;6.90;99.90;;;;;;5067283;28;20436;-76
2021/04/13 09:23:26;;;;;;;10.60;8.93;;;7.10;99.90;;;;;;5049127;28;20454;-76
2021/04/13 09:25:54;;;;;;;9.40;7.17;;;7.30;99.90;;;;;;5047329;28;21023;-76
2021/04/13 09:28:39;;;;;;;8.27;7.40;;;7.30;99.90;;;;;;5045793;28;20531;-77
2021/04/13 09:31:11;;;;;;;9.60;8.40;;;7.30;99.90;;;;;;5048625;28;20962;-77
2021/04/13 09:33:40;;;;;;;8.07;7.27;;;7.10;99.90;;;;;;5048587;28;20444;-76
2021/04/13 09:36:32;;;;;;;9.90;8.50;;;7.20;99.90;;;;;;5053346;28;21080;-76
2021/04/13 09:39:26;;;;;;;7.10;6.40;;;7.30;99.90;;;;;;5044369;28;20440;-76
2021/04/13 09:42:16;;;;;;;9.70;6.30;;;7.40;99.90;;;;;;5039367;28;20953;-75
2021/04/13 09:44:55;;;;;;;8.83;6.27;;;7.30;99.90;;;;;;5046221;28;20439;-77
2021/04/13 09:47:23;;;;;;;6.97;6.00;;;7.20;99.90;;;;;;5040968;28;20551;-75
2021/04/13 09:50:20;;;;;;;8.83;6.47;;;7.30;99.90;;;;;;5042288;28;20428;-76
2021/04/13 09:53:21;;;;;;;7.13;5.63;;;7.20;99.90;;;;;;5045997;28;20937;-77
2021/04/13 09:56:05;;;;;;;8.13;6.90;;;7.40;99.90;;;;;;5045726;28;20498;-79
2021/04/13 09:58:30;;;;;;;7.27;6.57;;;7.40;99.90;;;;;;5047772;28;20977;-76
2021/04/13 10:01:24;;;;;;;10.40;7.83;;;7.40;99.90;;;;;;5049429;28;20456;-76
2021/04/13 10:04:20;;;;;;;10.13;7.77;;;7.30;99.90;;;;;;5050545;28;20178;-79
2021/04/13 10:07:04;;;;;;;8.27;6.93;;;7.10;99.90;;;;;;5048351;28;20429;-76
2021/04/13 10:09:37;;;;;;;7.73;5.97;;;7.00;99.90;;;;;;5040501;28;20434;-77
2021/04/13 10:12:36;;;;;;;5.33;4.80;;;7.30;99.90;;;;;;5045039;28;20425;-78
2021/04/13 10:15:33;;;;;;;5.40;4.90;;;7.40;99.90;;;;;;5046433;28;20495;-77
2021/04/13 10:18:36;;;;;;;6.93;5.57;;;7.40;99.90;;;;;;5041414;28;20453;-77
2021/04/13 10:21:16;;;;;;;6.80;5.10;;;7.30;99.30;;;;;;5048252;28;20429;-76
2021/04/13 10:24:03;;;;;;;4.80;4.20;;;7.30;99.60;;;;;;5048280;28;20713;-75
2021/04/13 10:26:47;;;;;;;4.60;4.03;;;7.40;99.90;;;;;;5043130;28;20971;-76
2021/04/13 10:29:49;;;;;;;5.03;4.27;;;7.40;99.90;;;;;;5045832;28;20972;-77
2021/04/13 10:33:03;;;;;;;5.20;4.37;;;7.30;99.70;;;;;;5045508;28;20431;-77
2021/04/13 10:36:06;;;;;;;3.77;3.27;;;7.40;99.90;;;;;;5049918;28;20556;-77
2021/04/13 10:38:35;;;;;;;4.43;4.03;;;7.60;99.90;;;;;;5048836;28;20513;-75
2021/04/13 10:41:38;;;;;;;2.73;2.50;;;7.70;99.90;;;;;;5048006;28;20438;-77
2021/04/13 10:44:35;;;;;;;4.47;2.97;;;8.10;99.90;;;;;;5048666;28;20429;-77
2021/04/13 10:47:15;;;;;;;2.63;2.43;;;8.50;97.90;;;;;;5051804;28;20433;-76
2021/04/13 10:50:04;;;;;;;3.83;2.90;;;8.80;97.50;;;;;;5047520;28;20432;-80
2021/04/13 10:52:51;;;;;;;1.87;1.70;;;9.00;96.40;;;;;;5054545;28;20412;-77
2021/04/13 10:55:46;;;;;;;1.63;1.53;;;9.30;94.80;;;;;;5048717;28;20553;-78
2021/04/13 10:58:47;;;;;;;3.37;1.70;;;9.40;92.00;;;;;;5047006;28;20475;-78
2021/04/13 11:01:19;;;;;;;2.13;1.93;;;9.40;91.90;;;;;;5046400;28;20466;-76
2021/04/13 11:04:06;;;;;;;3.07;1.93;;;9.40;90.10;;;;;;5034103;28;20450;-76
2021/04/13 11:06:48;;;;;;;1.97;1.87;;;9.30;90.70;;;;;;5041981;28;20434;-76
2021/04/13 11:09:39;;;;;;;4.30;2.70;;;9.40;90.40;;;;;;5047650;28;20455;-77
2021/04/13 11:13:18;;;;;;;5.23;1.93;;;9.40;92.30;;;;;;5047173;28;20429;-76
2021/04/13 11:15:59;;;;;;;3.33;2.37;;;9.60;91.50;;;;;;4984704;28;20929;-77
2021/04/13 11:18:52;;;;;;;3.93;2.63;;;9.80;87.20;;;;;;4987980;28;20528;-78
2021/04/13 11:21:49;;;;;;;3.50;3.07;;;9.70;90.40;;;;;;4982864;28;20502;-79
2021/04/13 11:24:52;;;;;;;2.47;2.27;;;9.60;90.20;;;;;;4971322;28;20443;-76
2021/04/13 11:27:35;;;;;;;4.40;3.33;;;9.60;90.20;;;;;;4988451;28;20793;-75
2021/04/13 11:30:17;;;;;;;3.53;3.23;;;9.50;87.60;;;;;;4988244;28;20435;-78
2021/04/13 11:33:10;;;;;;;4.13;3.10;;;9.50;91.10;;;;;;4983817;28;20451;-75
2021/04/13 11:35:45;;;;;;;3.47;3.10;;;9.50;90.40;;;;;;4984839;28;20479;-77
2021/04/13 11:38:32;;;;;;;3.60;3.30;;;9.40;91.40;;;;;;4988299;28;20451;-76
2021/04/13 11:41:16;;;;;;;4.57;3.37;;;9.30;92.00;;;;;;4985865;28;20805;-77
2021/04/13 11:43:57;;;;;;;3.17;2.87;;;9.60;92.00;;;;;;4984570;28;20535;-76
2021/04/13 11:46:49;;;;;;;3.67;2.90;;;9.70;91.20;;;;;;5011995;28;20874;-76
2021/04/13 11:49:48;;;;;;;3.43;2.90;;;9.60;89.70;;;;;;5041456;28;20480;-77
2021/04/13 11:53:04;;;;;;;2.83;2.47;;;9.70;90.00;;;;;;5066567;28;20515;-76
2021/04/13 11:55:38;;;;;;;2.57;2.17;;;9.90;87.30;;;;;;5003466;28;20471;-75
2021/04/13 11:58:16;;;;;;;2.67;2.03;;;10.00;80.40;;;;;;5006247;28;20443;-78
2021/04/13 12:00:47;;;;;;;3.20;2.10;;;10.60;82.40;;;;;;5013048;28;20517;-77
2021/04/13 12:03:18;;;;;;;2.27;2.07;;;11.40;80.80;;;;;;5005618;28;20427;-77
2021/04/13 12:05:49;;;;;;;2.70;2.07;;;11.20;74.30;;;;;;5002990;28;20800;-76
2021/04/13 12:08:29;;;;;;;2.33;2.00;;;11.20;77.00;;;;;;5005202;28;20500;-76
2021/04/13 12:11:04;;;;;;;3.27;1.93;;;11.50;78.40;;;;;;5001824;28;20469;-76
2021/04/13 12:13:50;;;;;;;2.43;2.07;;;11.60;79.00;;;;;;5003870;28;20468;-77
2021/04/13 12:16:42;;;;;;;4.37;2.20;;;11.20;78.80;;;;;;4989509;28;20474;-76
2021/04/13 12:19:17;;;;;;;3.10;1.90;;;10.70;78.80;;;;;;5000026;28;20502;-76
2021/04/13 12:21:52;;;;;;;7.00;1.97;;;10.40;79.20;;;;;;5010648;28;20530;-77
2021/04/13 12:24:39;;;;;;;3.13;1.83;;;10.20;80.10;;;;;;5000847;28;20438;-75
2021/04/13 12:27:44;;;;;;;1.50;1.27;;;10.60;81.10;;;;;;5005446;28;20423;-76
2021/04/13 12:30:24;;;;;;;2.10;1.50;;;11.70;78.60;;;;;;4907337;29;20433;-77
2021/04/13 12:32:50;;;;;;;2.07;1.70;;;12.40;72.90;;;;;;4976941;28;20439;-76
2021/04/13 12:35:46;;;;;;;1.97;1.53;;;12.80;73.00;;;;;;4985713;28;20509;-76
2021/04/13 12:38:42;;;;;;;2.07;1.80;;;12.60;73.10;;;;;;4958307;28;20808;-78
2021/04/13 12:41:21;;;;;;;1.50;1.40;;;11.90;73.60;;;;;;4982339;28;20847;-76
2021/04/13 12:44:13;;;;;;;2.40;1.73;;;11.50;73.20;;;;;;4968299;28;20775;-77
2021/04/13 12:46:40;;;;;;;2.20;2.03;;;11.30;75.00;;;;;;4984910;28;20452;-75
2021/04/13 12:49:11;;;;;;;2.90;1.83;;;11.20;74.90;;;;;;4986815;28;20479;-76
2021/04/13 12:52:11;;;;;;;1.67;1.50;;;10.70;75.50;;;;;;4986071;28;20462;-76
2021/04/13 12:54:40;;;;;;;3.03;2.57;;;10.10;78.90;;;;;;4984276;28;20439;-77
2021/04/13 12:57:22;;;;;;;6.50;3.13;;;9.80;84.90;;;;;;4988599;28;20486;-78
2021/04/13 12:59:51;;;;;;;2.63;2.30;;;9.60;87.00;;;;;;4989872;28;20494;-75
2021/04/13 13:02:38;;;;;;;3.33;2.53;;;9.60;89.40;;;;;;5051056;28;20417;-78
2021/04/13 13:05:28;;;;;;;2.90;2.00;;;9.70;87.60;;;;;;5038314;28;20433;-77
2021/04/13 13:07:57;;;;;;;3.00;2.43;;;9.90;87.80;;;;;;5048884;28;20445;-78
2021/04/13 13:10:38;;;;;;;3.07;2.77;;;10.50;87.00;;;;;;5053106;28;20975;-76
2021/04/13 13:13:19;;;;;;;5.07;3.13;;;11.10;86.80;;;;;;5045977;28;20435;-77
2021/04/13 13:15:46;;;;;;;5.23;2.43;;;12.00;84.60;;;;;;5057383;28;20488;-77
2021/04/13 13:18:15;;;;;;;3.50;2.47;;;12.10;83.70;;;;;;5042646;28;20528;-77
2021/04/13 13:20:41;;;;;;;2.87;2.43;;;12.80;84.60;;;;;;5049503;28;20443;-76
2021/04/13 13:23:12;;;;;;;2.93;2.60;;;13.50;81.80;;;;;;5044431;28;20442;-76
2021/04/13 13:25:38;;;;;;;4.93;2.70;;;14.00;79.50;;;;;;5047921;28;20437;-76
2021/04/13 13:28:05;;;;;;;3.73;2.70;;;14.20;78.60;;;;;;5047398;28;20460;-77
2021/04/13 13:30:30;;;;;;;3.43;2.20;;;15.00;79.20;;;;;;5065009;28;20187;-77
2021/04/13 13:32:57;;;;;;;2.50;2.30;;;15.70;76.90;;;;;;5058008;28;20530;-78
2021/04/13 13:35:23;;;;;;;4.60;2.53;;;15.90;75.60;;;;;;5068645;28;20352;-76
2021/04/13 13:37:53;;;;;;;2.90;2.47;;;16.10;75.60;;;;;;5057562;28;20858;-78
2021/04/13 13:40:27;;;;;;;4.10;3.17;;;16.30;69.40;;;;;;5068649;28;20202;-78